sensor_id;sensor_type;location;lat;lon;timestamp;pressure;altitude;pressure_sealevel;temperature;humidity
10167;BME280;62970;53.130;8.244;2022-10-31T00:00:12;101954.69;;;11.25;73.41
10167;BME280;62970;53.130;8.244;2022-10-31T00:02:44;101963.41;;;11.24;73.45
10167;BME280;62970;53.130;8.244;2022-10-31T00:05:13;101965.16;;;11.22;73.20
10167;BME280;62970;53.130;8.244;2022-10-31T00:07:43;101965.16;;;11.22;73.21
10167;BME280;62970;53.130;8.244;2022-10-31T00:10:12;101976.47;;;11.21;73.29
10167;BME280;62970;53.130;8.244;2022-10-31T00:12:41;101977.34;;;11.20;73.51
10167;BME280;62970;53.130;8.244;2022-10-31T00:15:10;101979.97;;;11.20;73.26
10167;BME280;62970;53.130;8.244;2022-10-31T00:17:44;101986.06;;;11.19;73.04
10167;BME280;62970;53.130;8.244;2022-10-31T00:20:13;101986.06;;;11.17;73.36
10167;BME280;62970;53.130;8.244;2022-10-31T00:22:42;101991.31;;;11.15;73.42
10167;BME280;62970;53.130;8.244;2022-10-31T00:25:12;101985.22;;;11.13;73.25
10167;BME280;62970;53.130;8.244;2022-10-31T00:27:41;101995.69;;;11.10;73.13
10167;BME280;62970;53.130;8.244;2022-10-31T00:30:13;101994.84;;;11.08;72.86
10167;BME280;62970;53.130;8.244;2022-10-31T00:32:45;101995.72;;;11.06;73.26
10167;BME280;62970;53.130;8.244;2022-10-31T00:35:16;101997.47;;;11.02;72.99
10167;BME280;62970;53.130;8.244;2022-10-31T00:37:44;101997.50;;;11.01;73.02
10167;BME280;62970;53.130;8.244;2022-10-31T00:40:14;101995.78;;;10.97;72.94
10167;BME280;62970;53.130;8.244;2022-10-31T00:42:43;102005.38;;;10.93;72.80
10167;BME280;62970;53.130;8.244;2022-10-31T00:45:15;102008.00;;;10.89;72.85
10167;BME280;62970;53.130;8.244;2022-10-31T00:47:47;102012.38;;;10.85;72.62
10167;BME280;62970;53.130;8.244;2022-10-31T00:50:18;102023.69;;;10.82;72.76
10167;BME280;62970;53.130;8.244;2022-10-31T00:52:48;102022.84;;;10.77;72.78
10167;BME280;62970;53.130;8.244;2022-10-31T00:55:17;102028.09;;;10.74;73.01
10167;BME280;62970;53.130;8.244;2022-10-31T00:57:46;102032.44;;;10.71;72.52
10167;BME280;62970;53.130;8.244;2022-10-31T01:00:16;102034.19;;;10.67;72.60
10167;BME280;62970;53.130;8.244;2022-10-31T01:02:49;102037.69;;;10.63;72.95
10167;BME280;62970;53.130;8.244;2022-10-31T01:05:23;102038.56;;;10.59;72.88
10167;BME280;62970;53.130;8.244;2022-10-31T01:07:52;102041.19;;;10.58;72.64
10167;BME280;62970;53.130;8.244;2022-10-31T01:10:21;102036.84;;;10.54;72.91
10167;BME280;62970;53.130;8.244;2022-10-31T01:12:51;102049.91;;;10.49;72.82
10167;BME280;62970;53.130;8.244;2022-10-31T01:15:22;102037.75;;;10.46;73.01
10167;BME280;62970;53.130;8.244;2022-10-31T01:17:54;102042.97;;;10.42;73.09
10167;BME280;62970;53.130;8.244;2022-10-31T01:20:25;102052.56;;;10.38;72.57
10167;BME280;62970;53.130;8.244;2022-10-31T01:22:54;102040.41;;;10.34;73.11
10167;BME280;62970;53.130;8.244;2022-10-31T01:25:25;102044.75;;;10.31;73.04
10167;BME280;62970;53.130;8.244;2022-10-31T01:27:54;102043.88;;;10.27;72.95
10167;BME280;62970;53.130;8.244;2022-10-31T01:30:24;102033.47;;;10.23;73.15
10167;BME280;62970;53.130;8.244;2022-10-31T01:33:00;102036.09;;;10.19;73.04
10167;BME280;62970;53.130;8.244;2022-10-31T01:35:29;102035.22;;;10.17;73.33
10167;BME280;62970;53.130;8.244;2022-10-31T01:37:58;102031.72;;;10.15;72.89
10167;BME280;62970;53.130;8.244;2022-10-31T01:40:29;102040.41;;;10.13;72.87
10167;BME280;62970;53.130;8.244;2022-10-31T01:42:59;102035.19;;;10.11;73.15
10167;BME280;62970;53.130;8.244;2022-10-31T01:45:28;102046.50;;;10.10;73.02
10167;BME280;62970;53.130;8.244;2022-10-31T01:48:00;102038.69;;;10.07;72.88
10167;BME280;62970;53.130;8.244;2022-10-31T01:50:32;102043.03;;;10.07;73.24
10167;BME280;62970;53.130;8.244;2022-10-31T01:53:02;102051.72;;;10.07;73.43
10167;BME280;62970;53.130;8.244;2022-10-31T01:55:40;102046.50;;;10.09;73.89
10167;BME280;62970;53.130;8.244;2022-10-31T01:58:15;102047.38;;;10.12;73.49
10167;BME280;62970;53.130;8.244;2022-10-31T02:00:50;102047.34;;;10.15;74.07
10167;BME280;62970;53.130;8.244;2022-10-31T02:03:23;102046.50;;;10.19;73.60
10167;BME280;62970;53.130;8.244;2022-10-31T02:05:56;102043.03;;;10.24;73.72
10167;BME280;62970;53.130;8.244;2022-10-31T02:08:29;102048.22;;;10.28;73.74
10167;BME280;62970;53.130;8.244;2022-10-31T02:11:03;102050.84;;;10.28;73.61
10167;BME280;62970;53.130;8.244;2022-10-31T02:13:34;102050.84;;;10.30;73.81
10167;BME280;62970;53.130;8.244;2022-10-31T02:16:04;102046.50;;;10.30;73.71
10167;BME280;62970;53.130;8.244;2022-10-31T02:18:37;102052.56;;;10.28;73.18
10167;BME280;62970;53.130;8.244;2022-10-31T02:21:13;102049.97;;;10.26;73.55
10167;BME280;62970;53.130;8.244;2022-10-31T02:24:12;102036.94;;;10.22;73.16
10167;BME280;62970;53.130;8.244;2022-10-31T02:27:21;102041.31;;;10.19;73.25
10167;BME280;62970;53.130;8.244;2022-10-31T02:30:14;102050.84;;;10.16;73.38
10167;BME280;62970;53.130;8.244;2022-10-31T02:33:07;102055.19;;;10.11;73.36
10167;BME280;62970;53.130;8.244;2022-10-31T02:35:50;102050.84;;;10.07;73.29
10167;BME280;62970;53.130;8.244;2022-10-31T02:38:41;102053.47;;;10.02;73.15
10167;BME280;62970;53.130;8.244;2022-10-31T02:41:26;102057.81;;;10.00;73.53
10167;BME280;62970;53.130;8.244;2022-10-31T02:44:07;102057.78;;;9.99;73.87
10167;BME280;62970;53.130;8.244;2022-10-31T02:46:47;102052.56;;;9.97;73.58
10167;BME280;62970;53.130;8.244;2022-10-31T02:49:32;102051.69;;;9.94;73.50
10167;BME280;62970;53.130;8.244;2022-10-31T02:52:12;102053.44;;;9.92;73.79
10167;BME280;62970;53.130;8.244;2022-10-31T02:54:42;102063.84;;;9.88;73.56
10167;BME280;62970;53.130;8.244;2022-10-31T02:57:13;102064.72;;;9.84;73.40
10167;BME280;62970;53.130;8.244;2022-10-31T02:59:50;102066.47;;;9.81;73.53
10167;BME280;62970;53.130;8.244;2022-10-31T03:02:40;102070.81;;;9.76;73.32
10167;BME280;62970;53.130;8.244;2022-10-31T03:05:48;102064.72;;;9.69;73.31
10167;BME280;62970;53.130;8.244;2022-10-31T03:08:24;102066.47;;;9.67;73.56
10167;BME280;62970;53.130;8.244;2022-10-31T03:11:01;102063.84;;;9.63;73.67
10167;BME280;62970;53.130;8.244;2022-10-31T03:13:38;102061.25;;;9.58;73.07
10167;BME280;62970;53.130;8.244;2022-10-31T03:16:12;102067.31;;;9.54;73.59
10167;BME280;62970;53.130;8.244;2022-10-31T03:18:50;102069.91;;;9.51;73.49
10167;BME280;62970;53.130;8.244;2022-10-31T03:21:28;102078.59;;;9.48;73.43
10167;BME280;62970;53.130;8.244;2022-10-31T03:23:59;102073.41;;;9.50;73.82
10167;BME280;62970;53.130;8.244;2022-10-31T03:26:30;102081.22;;;9.51;74.00
10167;BME280;62970;53.130;8.244;2022-10-31T03:29:03;102078.59;;;9.54;73.95
10167;BME280;62970;53.130;8.244;2022-10-31T03:31:38;102082.09;;;9.58;74.40
10167;BME280;62970;53.130;8.244;2022-10-31T03:34:11;102075.16;;;9.63;74.33
10167;BME280;62970;53.130;8.244;2022-10-31T03:36:45;102076.00;;;9.67;74.26
10167;BME280;62970;53.130;8.244;2022-10-31T03:39:18;102085.56;;;9.71;73.99
10167;BME280;62970;53.130;8.244;2022-10-31T03:41:53;102076.03;;;9.74;74.39
10167;BME280;62970;53.130;8.244;2022-10-31T03:44:26;102080.34;;;9.78;74.14
10167;BME280;62970;53.130;8.244;2022-10-31T03:46:58;102080.34;;;9.83;74.47
10167;BME280;62970;53.130;8.244;2022-10-31T03:49:28;102083.84;;;9.86;73.89
10167;BME280;62970;53.130;8.244;2022-10-31T03:52:07;102084.69;;;9.90;74.03
10167;BME280;62970;53.130;8.244;2022-10-31T03:54:43;102091.66;;;9.96;74.00
10167;BME280;62970;53.130;8.244;2022-10-31T03:57:19;102089.03;;;9.99;74.18
10167;BME280;62970;53.130;8.244;2022-10-31T03:59:56;102095.16;;;10.02;74.19
10167;BME280;62970;53.130;8.244;2022-10-31T04:02:31;102095.16;;;10.05;73.83
10167;BME280;62970;53.130;8.244;2022-10-31T04:05:02;102092.53;;;10.10;73.78
10167;BME280;62970;53.130;8.244;2022-10-31T04:07:39;102090.81;;;10.12;74.19
10167;BME280;62970;53.130;8.244;2022-10-31T04:10:14;102086.47;;;10.14;74.20
10167;BME280;62970;53.130;8.244;2022-10-31T04:12:49;102086.47;;;10.15;74.01
10167;BME280;62970;53.130;8.244;2022-10-31T04:15:23;102081.28;;;10.17;73.89
10167;BME280;62970;53.130;8.244;2022-10-31T04:17:55;102083.00;;;10.18;73.98
10167;BME280;62970;53.130;8.244;2022-10-31T04:20:34;102088.22;;;10.18;74.16
10167;BME280;62970;53.130;8.244;2022-10-31T04:23:16;102082.13;;;10.17;73.96
10167;BME280;62970;53.130;8.244;2022-10-31T04:25:47;102089.09;;;10.17;73.96
10167;BME280;62970;53.130;8.244;2022-10-31T04:28:17;102084.72;;;10.16;73.81
10167;BME280;62970;53.130;8.244;2022-10-31T04:30:46;102102.97;;;10.16;74.10
10167;BME280;62970;53.130;8.244;2022-10-31T04:33:16;102102.97;;;10.14;73.92
10167;BME280;62970;53.130;8.244;2022-10-31T04:35:45;102105.56;;;10.13;73.67
10167;BME280;62970;53.130;8.244;2022-10-31T04:38:17;102108.19;;;10.11;73.83
10167;BME280;62970;53.130;8.244;2022-10-31T04:40:46;102106.44;;;10.10;73.94
10167;BME280;62970;53.130;8.244;2022-10-31T04:43:15;102101.22;;;10.10;74.14
10167;BME280;62970;53.130;8.244;2022-10-31T04:45:44;102109.03;;;10.09;73.79
10167;BME280;62970;53.130;8.244;2022-10-31T04:48:13;102103.84;;;10.09;73.78
10167;BME280;62970;53.130;8.244;2022-10-31T04:50:42;102108.19;;;10.08;74.11
10167;BME280;62970;53.130;8.244;2022-10-31T04:53:11;102106.44;;;10.09;74.22
10167;BME280;62970;53.130;8.244;2022-10-31T04:55:44;102103.84;;;10.09;74.12
10167;BME280;62970;53.130;8.244;2022-10-31T04:58:13;102107.31;;;10.09;74.30
10167;BME280;62970;53.130;8.244;2022-10-31T05:00:42;102102.97;;;10.11;73.88
10167;BME280;62970;53.130;8.244;2022-10-31T05:03:13;102108.19;;;10.11;74.30
10167;BME280;62970;53.130;8.244;2022-10-31T05:05:42;102108.19;;;10.14;74.00
10167;BME280;62970;53.130;8.244;2022-10-31T05:08:11;102104.69;;;10.15;73.95
10167;BME280;62970;53.130;8.244;2022-10-31T05:10:43;102101.25;;;10.18;73.83
10167;BME280;62970;53.130;8.244;2022-10-31T05:13:12;102090.81;;;10.19;74.27
10167;BME280;62970;53.130;8.244;2022-10-31T05:15:41;102099.50;;;10.20;73.83
10167;BME280;62970;53.130;8.244;2022-10-31T05:18:11;102087.34;;;10.22;73.79
10167;BME280;62970;53.130;8.244;2022-10-31T05:20:40;102094.28;;;10.23;74.07
10167;BME280;62970;53.130;8.244;2022-10-31T05:23:09;102096.91;;;10.26;73.85
10167;BME280;62970;53.130;8.244;2022-10-31T05:25:39;102102.09;;;10.28;73.80
10167;BME280;62970;53.130;8.244;2022-10-31T05:28:14;102097.75;;;10.28;74.11
10167;BME280;62970;53.130;8.244;2022-10-31T05:30:44;102095.16;;;10.30;74.23
10167;BME280;62970;53.130;8.244;2022-10-31T05:33:13;102093.41;;;10.32;73.80
10167;BME280;62970;53.130;8.244;2022-10-31T05:35:42;102102.09;;;10.32;74.35
10167;BME280;62970;53.130;8.244;2022-10-31T05:38:11;102089.94;;;10.33;73.95
10167;BME280;62970;53.130;8.244;2022-10-31T05:40:40;102100.38;;;10.33;73.78
10167;BME280;62970;53.130;8.244;2022-10-31T05:43:09;102101.22;;;10.35;74.32
10167;BME280;62970;53.130;8.244;2022-10-31T05:45:41;102104.72;;;10.34;73.92
10167;BME280;62970;53.130;8.244;2022-10-31T05:48:12;102102.97;;;10.37;73.99
10167;BME280;62970;53.130;8.244;2022-10-31T05:50:42;102105.56;;;10.37;73.77
10167;BME280;62970;53.130;8.244;2022-10-31T05:53:11;102101.22;;;10.38;73.89
10167;BME280;62970;53.130;8.244;2022-10-31T05:55:41;102104.69;;;10.38;74.44
10167;BME280;62970;53.130;8.244;2022-10-31T05:58:11;102106.44;;;10.39;73.87
10167;BME280;62970;53.130;8.244;2022-10-31T06:00:43;102109.03;;;10.39;73.77
10167;BME280;62970;53.130;8.244;2022-10-31T06:03:12;102116.88;;;10.41;73.76
10167;BME280;62970;53.130;8.244;2022-10-31T06:05:42;102126.44;;;10.42;74.09
10167;BME280;62970;53.130;8.244;2022-10-31T06:08:11;102120.34;;;10.41;74.17
10167;BME280;62970;53.130;8.244;2022-10-31T06:10:40;102123.81;;;10.43;73.83
10167;BME280;62970;53.130;8.244;2022-10-31T06:13:10;102127.28;;;10.42;74.24
10167;BME280;62970;53.130;8.244;2022-10-31T06:15:42;102135.13;;;10.42;74.05
10167;BME280;62970;53.130;8.244;2022-10-31T06:18:13;102137.72;;;10.42;73.91
10167;BME280;62970;53.130;8.244;2022-10-31T06:20:43;102142.94;;;10.42;73.93
10167;BME280;62970;53.130;8.244;2022-10-31T06:23:12;102141.19;;;10.41;73.96
10167;BME280;62970;53.130;8.244;2022-10-31T06:25:41;102138.59;;;10.41;73.97
10167;BME280;62970;53.130;8.244;2022-10-31T06:28:11;102146.41;;;10.41;73.65
10167;BME280;62970;53.130;8.244;2022-10-31T06:30:43;102145.53;;;10.41;73.71
10167;BME280;62970;53.130;8.244;2022-10-31T06:33:12;102147.28;;;10.40;73.88
10167;BME280;62970;53.130;8.244;2022-10-31T06:35:47;102135.13;;;10.38;73.87
10167;BME280;62970;53.130;8.244;2022-10-31T06:38:16;102144.69;;;10.39;73.91
10167;BME280;62970;53.130;8.244;2022-10-31T06:40:45;102143.81;;;10.38;73.97
10167;BME280;62970;53.130;8.244;2022-10-31T06:43:15;102140.34;;;10.38;73.99
10167;BME280;62970;53.130;8.244;2022-10-31T06:45:48;102138.59;;;10.37;74.30
10167;BME280;62970;53.130;8.244;2022-10-31T06:48:19;102136.00;;;10.37;73.61
10167;BME280;62970;53.130;8.244;2022-10-31T06:50:48;102129.03;;;10.36;73.92
10167;BME280;62970;53.130;8.244;2022-10-31T06:53:18;102134.25;;;10.34;73.78
10167;BME280;62970;53.130;8.244;2022-10-31T06:55:47;102139.47;;;10.33;73.81
10167;BME280;62970;53.130;8.244;2022-10-31T06:58:16;102131.66;;;10.31;73.75
10167;BME280;62970;53.130;8.244;2022-10-31T07:00:50;102140.34;;;10.30;74.11
10167;BME280;62970;53.130;8.244;2022-10-31T07:03:19;102142.09;;;10.30;73.60
10167;BME280;62970;53.130;8.244;2022-10-31T07:05:50;102142.94;;;10.30;74.02
10167;BME280;62970;53.130;8.244;2022-10-31T07:08:19;102147.28;;;10.30;73.90
10167;BME280;62970;53.130;8.244;2022-10-31T07:10:53;102152.50;;;10.30;73.61
10167;BME280;62970;53.130;8.244;2022-10-31T07:13:23;102152.50;;;10.31;73.91
10167;BME280;62970;53.130;8.244;2022-10-31T07:16:00;102162.94;;;10.31;74.07
10167;BME280;62970;53.130;8.244;2022-10-31T07:18:30;102160.31;;;10.33;73.81
10167;BME280;62970;53.130;8.244;2022-10-31T07:20:59;102164.69;;;10.35;73.81
10167;BME280;62970;53.130;8.244;2022-10-31T07:23:29;102163.81;;;10.38;73.89
10167;BME280;62970;53.130;8.244;2022-10-31T07:25:59;102160.31;;;10.39;73.91
10167;BME280;62970;53.130;8.244;2022-10-31T07:28:28;102164.66;;;10.40;73.89
10167;BME280;62970;53.130;8.244;2022-10-31T07:31:00;102158.59;;;10.41;73.46
10167;BME280;62970;53.130;8.244;2022-10-31T07:33:30;102162.94;;;10.43;73.84
10167;BME280;62970;53.130;8.244;2022-10-31T07:36:00;102167.28;;;10.46;73.85
10167;BME280;62970;53.130;8.244;2022-10-31T07:38:30;102153.38;;;10.47;73.47
10167;BME280;62970;53.130;8.244;2022-10-31T07:40:59;102159.44;;;10.49;73.90
10167;BME280;62970;53.130;8.244;2022-10-31T07:43:29;102152.50;;;10.49;73.67
10167;BME280;62970;53.130;8.244;2022-10-31T07:46:04;102157.69;;;10.49;73.61
10167;BME280;62970;53.130;8.244;2022-10-31T07:48:34;102153.34;;;10.50;73.54
10167;BME280;62970;53.130;8.244;2022-10-31T07:51:03;102149.88;;;10.52;73.77
10167;BME280;62970;53.130;8.244;2022-10-31T07:53:32;102148.13;;;10.53;73.64
10167;BME280;62970;53.130;8.244;2022-10-31T07:56:01;102145.53;;;10.55;73.33
10167;BME280;62970;53.130;8.244;2022-10-31T07:58:31;102155.09;;;10.54;73.19
10167;BME280;62970;53.130;8.244;2022-10-31T08:01:03;102148.13;;;10.53;73.07
10167;BME280;62970;53.130;8.244;2022-10-31T08:03:32;102150.75;;;10.55;73.61
10167;BME280;62970;53.130;8.244;2022-10-31T08:06:01;102147.25;;;10.56;73.44
10167;BME280;62970;53.130;8.244;2022-10-31T08:08:30;102155.09;;;10.57;73.28
10167;BME280;62970;53.130;8.244;2022-10-31T08:11:00;102158.56;;;10.58;73.31
10167;BME280;62970;53.130;8.244;2022-10-31T08:13:29;102160.31;;;10.57;73.10
10167;BME280;62970;53.130;8.244;2022-10-31T08:15:58;102166.38;;;10.58;73.51
10167;BME280;62970;53.130;8.244;2022-10-31T08:18:32;102162.03;;;10.60;73.13
10167;BME280;62970;53.130;8.244;2022-10-31T08:21:03;102162.91;;;10.62;73.06
10167;BME280;62970;53.130;8.244;2022-10-31T08:23:32;102165.50;;;10.65;73.30
10167;BME280;62970;53.130;8.244;2022-10-31T08:26:01;102164.63;;;10.66;73.20
10167;BME280;62970;53.130;8.244;2022-10-31T08:28:32;102166.38;;;10.68;73.40
10167;BME280;62970;53.130;8.244;2022-10-31T08:31:01;102166.34;;;10.70;73.29
10167;BME280;62970;53.130;8.244;2022-10-31T08:33:33;102164.63;;;10.72;73.08
10167;BME280;62970;53.130;8.244;2022-10-31T08:36:02;102164.63;;;10.73;73.20
10167;BME280;62970;53.130;8.244;2022-10-31T08:38:31;102162.00;;;10.76;73.09
10167;BME280;62970;53.130;8.244;2022-10-31T08:41:01;102175.03;;;10.79;73.10
10167;BME280;62970;53.130;8.244;2022-10-31T08:43:30;102166.31;;;10.82;72.81
10167;BME280;62970;53.130;8.244;2022-10-31T08:46:00;102157.63;;;10.84;72.90
10167;BME280;62970;53.130;8.244;2022-10-31T08:48:32;102159.34;;;10.89;73.14
10167;BME280;62970;53.130;8.244;2022-10-31T08:51:01;102166.31;;;10.91;72.70
10167;BME280;62970;53.130;8.244;2022-10-31T08:53:31;102163.69;;;10.93;72.93
10167;BME280;62970;53.130;8.244;2022-10-31T08:56:00;102162.81;;;10.95;72.93
10167;BME280;62970;53.130;8.244;2022-10-31T08:58:29;102163.66;;;10.99;72.89
10167;BME280;62970;53.130;8.244;2022-10-31T09:01:01;102156.69;;;11.01;72.56
10167;BME280;62970;53.130;8.244;2022-10-31T09:03:33;102155.81;;;11.03;72.54
10167;BME280;62970;53.130;8.244;2022-10-31T09:06:03;102159.28;;;11.08;72.63
10167;BME280;62970;53.130;8.244;2022-10-31T09:08:35;102156.66;;;11.13;72.97
10167;BME280;62970;53.130;8.244;2022-10-31T09:11:04;102160.97;;;11.20;73.08
10167;BME280;62970;53.130;8.244;2022-10-31T09:13:35;102149.63;;;11.29;72.68
10167;BME280;62970;53.130;8.244;2022-10-31T09:16:06;102146.97;;;11.33;72.63
10167;BME280;62970;53.130;8.244;2022-10-31T09:18:38;102139.97;;;11.40;72.75
10167;BME280;62970;53.130;8.244;2022-10-31T09:21:08;102131.28;;;11.44;72.44
10167;BME280;62970;53.130;8.244;2022-10-31T09:23:37;102134.78;;;11.44;72.20
10167;BME280;62970;53.130;8.244;2022-10-31T09:26:06;102133.03;;;11.42;72.24
10167;BME280;62970;53.130;8.244;2022-10-31T09:28:35;102140.00;;;11.38;72.23
10167;BME280;62970;53.130;8.244;2022-10-31T09:31:04;102131.28;;;11.36;72.30
10167;BME280;62970;53.130;8.244;2022-10-31T09:33:37;102129.56;;;11.35;72.47
10167;BME280;62970;53.130;8.244;2022-10-31T09:36:08;102131.31;;;11.35;72.63
10167;BME280;62970;53.130;8.244;2022-10-31T09:38:37;102135.66;;;11.33;72.04
10167;BME280;62970;53.130;8.244;2022-10-31T09:41:16;102129.59;;;11.31;72.39
10167;BME280;62970;53.130;8.244;2022-10-31T09:43:55;102121.75;;;11.29;72.77
10167;BME280;62970;53.130;8.244;2022-10-31T09:46:33;102120.03;;;11.30;72.32
10167;BME280;62970;53.130;8.244;2022-10-31T09:49:51;102115.69;;;11.27;72.45
10167;BME280;62970;53.130;8.244;2022-10-31T09:52:28;102118.28;;;11.29;72.50
10167;BME280;62970;53.130;8.244;2022-10-31T09:55:02;102123.50;;;11.29;72.74
10167;BME280;62970;53.130;8.244;2022-10-31T09:57:35;102121.75;;;11.31;73.00
10167;BME280;62970;53.130;8.244;2022-10-31T10:00:11;102118.25;;;11.35;72.61
10167;BME280;62970;53.130;8.244;2022-10-31T10:02:49;102123.47;;;11.38;73.08
10167;BME280;62970;53.130;8.244;2022-10-31T10:05:29;102128.66;;;11.39;72.92
10167;BME280;62970;53.130;8.244;2022-10-31T10:08:10;102129.56;;;11.43;72.80
10167;BME280;62970;53.130;8.244;2022-10-31T10:10:49;102133.88;;;11.45;73.11
10167;BME280;62970;53.130;8.244;2022-10-31T10:13:51;102126.03;;;11.47;72.63
10167;BME280;62970;53.130;8.244;2022-10-31T10:16:46;102128.66;;;11.48;72.66
10167;BME280;62970;53.130;8.244;2022-10-31T10:19:38;102130.38;;;11.51;72.61
10167;BME280;62970;53.130;8.244;2022-10-31T10:22:22;102134.72;;;11.54;73.10
10167;BME280;62970;53.130;8.244;2022-10-31T10:25:08;102138.16;;;11.60;72.95
10167;BME280;62970;53.130;8.244;2022-10-31T10:27:54;102130.28;;;11.65;73.15
10167;BME280;62970;53.130;8.244;2022-10-31T10:30:33;102131.13;;;11.68;73.11
10167;BME280;62970;53.130;8.244;2022-10-31T10:33:10;102127.63;;;11.72;72.95
10167;BME280;62970;53.130;8.244;2022-10-31T10:35:44;102126.72;;;11.78;72.67
10167;BME280;62970;53.130;8.244;2022-10-31T10:38:26;102120.59;;;11.80;72.89
10167;BME280;62970;53.130;8.244;2022-10-31T10:41:05;102123.19;;;11.84;72.81
10167;BME280;62970;53.130;8.244;2022-10-31T10:43:39;102124.03;;;11.86;72.83
10167;BME280;62970;53.130;8.244;2022-10-31T10:46:21;102119.66;;;11.89;73.28
10167;BME280;62970;53.130;8.244;2022-10-31T10:49:16;102114.38;;;11.95;72.82
10167;BME280;62970;53.130;8.244;2022-10-31T10:51:52;102118.69;;;12.02;72.95
10167;BME280;62970;53.130;8.244;2022-10-31T10:54:53;102112.53;;;12.08;73.31
10167;BME280;62970;53.130;8.244;2022-10-31T10:57:54;102121.16;;;12.16;72.80
10167;BME280;62970;53.130;8.244;2022-10-31T11:00:29;102108.03;;;12.22;72.64
10167;BME280;62970;53.130;8.244;2022-10-31T11:02:59;102111.47;;;12.29;72.81
10167;BME280;62970;53.130;8.244;2022-10-31T11:05:36;102106.16;;;12.35;73.07
10167;BME280;62970;53.130;8.244;2022-10-31T11:08:06;102101.75;;;12.41;72.88
10167;BME280;62970;53.130;8.244;2022-10-31T11:10:39;102099.94;;;12.48;72.52
10167;BME280;62970;53.130;8.244;2022-10-31T11:13:22;102105.06;;;12.56;72.53
10167;BME280;62970;53.130;8.244;2022-10-31T11:16:07;102099.81;;;12.65;72.99
10167;BME280;62970;53.130;8.244;2022-10-31T11:18:40;102102.34;;;12.71;72.25
10167;BME280;62970;53.130;8.244;2022-10-31T11:21:22;102092.69;;;12.78;72.15
10167;BME280;62970;53.130;8.244;2022-10-31T11:24:07;102090.84;;;12.86;72.42
10167;BME280;62970;53.130;8.244;2022-10-31T11:26:46;102094.22;;;12.94;72.41
10167;BME280;62970;53.130;8.244;2022-10-31T11:29:21;102081.88;;;13.03;72.12
10167;BME280;62970;53.130;8.244;2022-10-31T11:31:53;102086.09;;;13.14;72.23
10167;BME280;62970;53.130;8.244;2022-10-31T11:34:31;102085.97;;;13.23;72.01
10167;BME280;62970;53.130;8.244;2022-10-31T11:37:08;102085.88;;;13.30;72.06
10167;BME280;62970;53.130;8.244;2022-10-31T11:39:42;102076.19;;;13.35;71.37
10167;BME280;62970;53.130;8.244;2022-10-31T11:42:17;102077.00;;;13.39;71.27
10167;BME280;62970;53.130;8.244;2022-10-31T11:44:47;102072.59;;;13.43;71.68
10167;BME280;62970;53.130;8.244;2022-10-31T11:47:21;102066.44;;;13.45;71.20
10167;BME280;62970;53.130;8.244;2022-10-31T11:49:54;102068.16;;;13.48;71.90
10167;BME280;62970;53.130;8.244;2022-10-31T11:52:30;102061.97;;;13.52;71.33
10167;BME280;62970;53.130;8.244;2022-10-31T11:55:15;102060.16;;;13.55;71.60
10167;BME280;62970;53.130;8.244;2022-10-31T11:57:49;102050.47;;;13.60;71.37
10167;BME280;62970;53.130;8.244;2022-10-31T12:00:33;102053.91;;;13.67;71.30
10167;BME280;62970;53.130;8.244;2022-10-31T12:03:13;102052.03;;;13.75;71.40
10167;BME280;62970;53.130;8.244;2022-10-31T12:05:45;102046.66;;;13.83;71.39
10167;BME280;62970;53.130;8.244;2022-10-31T12:08:15;102050.88;;;13.91;70.99
10167;BME280;62970;53.130;8.244;2022-10-31T12:10:52;102052.50;;;13.98;71.12
10167;BME280;62970;53.130;8.244;2022-10-31T12:13:37;102045.38;;;14.05;70.82
10167;BME280;62970;53.130;8.244;2022-10-31T12:16:17;102038.28;;;14.10;71.12
10167;BME280;62970;53.130;8.244;2022-10-31T12:19:00;102030.41;;;14.12;70.63
10167;BME280;62970;53.130;8.244;2022-10-31T12:22:12;102032.97;;;14.15;70.58
10167;BME280;62970;53.130;8.244;2022-10-31T12:24:58;102028.56;;;14.15;71.02
10167;BME280;62970;53.130;8.244;2022-10-31T12:27:47;102019.78;;;14.18;70.72
10167;BME280;62970;53.130;8.244;2022-10-31T12:30:28;102025.84;;;14.21;70.71
10167;BME280;62970;53.130;8.244;2022-10-31T12:36:17;101995.19;;;14.23;70.70
10167;BME280;62970;53.130;8.244;2022-10-31T12:39:14;101985.50;;;14.27;70.80
10167;BME280;62970;53.130;8.244;2022-10-31T12:41:52;101979.31;;;14.31;70.49
10167;BME280;62970;53.130;8.244;2022-10-31T12:45:05;101966.03;;;14.39;70.70
10167;BME280;62970;53.130;8.244;2022-10-31T12:48:20;101968.47;;;14.48;70.76
10167;BME280;62970;53.130;8.244;2022-10-31T12:51:06;101973.59;;;14.54;70.24
10167;BME280;62970;53.130;8.244;2022-10-31T12:53:53;101961.34;;;14.53;70.68
10167;BME280;62970;53.130;8.244;2022-10-31T12:56:41;101966.63;;;14.51;70.16
10167;BME280;62970;53.130;8.244;2022-10-31T12:59:24;101961.44;;;14.48;70.11
10167;BME280;62970;53.130;8.244;2022-10-31T13:02:01;101954.53;;;14.44;70.32
10167;BME280;62970;53.130;8.244;2022-10-31T13:04:44;101940.69;;;14.38;70.47
10167;BME280;62970;53.130;8.244;2022-10-31T13:07:22;101938.09;;;14.36;70.57
10167;BME280;62970;53.130;8.244;2022-10-31T13:10:00;101925.03;;;14.33;70.73
10167;BME280;62970;53.130;8.244;2022-10-31T13:12:33;101923.31;;;14.32;70.78
10167;BME280;62970;53.130;8.244;2022-10-31T13:15:13;101929.53;;;14.28;70.82
10167;BME280;62970;53.130;8.244;2022-10-31T13:17:48;101921.69;;;14.26;70.59
10167;BME280;62970;53.130;8.244;2022-10-31T13:20:25;101912.13;;;14.24;70.99
10167;BME280;62970;53.130;8.244;2022-10-31T13:23:03;101914.81;;;14.21;71.19
10167;BME280;62970;53.130;8.244;2022-10-31T13:25:40;101920.06;;;14.21;70.79
10167;BME280;62970;53.130;8.244;2022-10-31T13:28:24;101931.38;;;14.23;71.20
10167;BME280;62970;53.130;8.244;2022-10-31T13:30:54;101910.31;;;14.26;71.32